sensor_id;sensor_type;location;lat;lon;timestamp;temperature;humidity
21481;DHT22;10902;48.158;8.634;2023-09-08T00:02:27;15.00;99.90
21481;DHT22;10902;48.158;8.634;2023-09-08T00:05:13;14.90;99.90
21481;DHT22;10902;48.158;8.634;2023-09-08T00:07:58;14.70;99.90
21481;DHT22;10902;48.158;8.634;2023-09-08T00:10:44;14.80;99.90
21481;DHT22;10902;48.158;8.634;2023-09-08T00:13:30;14.80;99.90
21481;DHT22;10902;48.158;8.634;2023-09-08T00:16:16;14.80;99.90
21481;DHT22;10902;48.158;8.634;2023-09-08T00:19:01;14.80;99.90
21481;DHT22;10902;48.158;8.634;2023-09-08T00:21:47;14.70;99.90
21481;DHT22;10902;48.158;8.634;2023-09-08T00:24:32;14.70;99.90
21481;DHT22;10902;48.158;8.634;2023-09-08T00:27:18;14.70;99.90
21481;DHT22;10902;48.158;8.634;2023-09-08T00:30:04;14.70;99.90
21481;DHT22;10902;48.158;8.634;2023-09-08T00:32:50;14.70;99.90
21481;DHT22;10902;48.158;8.634;2023-09-08T00:35:35;14.70;99.90
21481;DHT22;10902;48.158;8.634;2023-09-08T00:38:21;14.70;99.90
21481;DHT22;10902;48.158;8.634;2023-09-08T00:41:07;14.70;99.90
21481;DHT22;10902;48.158;8.634;2023-09-08T00:44:21;14.70;99.90
21481;DHT22;10902;48.158;8.634;2023-09-08T00:47:07;14.60;99.90
21481;DHT22;10902;48.158;8.634;2023-09-08T00:49:52;14.40;99.90
21481;DHT22;10902;48.158;8.634;2023-09-08T00:52:38;14.40;99.90
21481;DHT22;10902;48.158;8.634;2023-09-08T00:55:24;14.30;99.90
21481;DHT22;10902;48.158;8.634;2023-09-08T00:58:11;14.30;99.90
21481;DHT22;10902;48.158;8.634;2023-09-08T01:00:57;14.20;99.90
21481;DHT22;10902;48.158;8.634;2023-09-08T01:03:43;14.20;99.90
21481;DHT22;10902;48.158;8.634;2023-09-08T01:06:29;14.00;99.90
21481;DHT22;10902;48.158;8.634;2023-09-08T01:12:58;13.90;99.90
21481;DHT22;10902;48.158;8.634;2023-09-08T01:15:44;13.80;99.90
21481;DHT22;10902;48.158;8.634;2023-09-08T01:18:29;13.80;99.90
21481;DHT22;10902;48.158;8.634;2023-09-08T01:21:38;13.80;99.90
21481;DHT22;10902;48.158;8.634;2023-09-08T01:27:16;13.70;99.90
21481;DHT22;10902;48.158;8.634;2023-09-08T01:30:03;13.70;99.90
21481;DHT22;10902;48.158;8.634;2023-09-08T01:32:51;13.70;99.90
21481;DHT22;10902;48.158;8.634;2023-09-08T01:35:37;13.70;99.90
21481;DHT22;10902;48.158;8.634;2023-09-08T01:38:24;13.60;99.90
21481;DHT22;10902;48.158;8.634;2023-09-08T01:41:09;13.60;99.90
21481;DHT22;10902;48.158;8.634;2023-09-08T01:51:19;13.50;99.90
21481;DHT22;10902;48.158;8.634;2023-09-08T01:54:04;13.50;99.90
21481;DHT22;10902;48.158;8.634;2023-09-08T01:56:50;13.50;99.90
21481;DHT22;10902;48.158;8.634;2023-09-08T01:59:36;13.40;99.90
21481;DHT22;10902;48.158;8.634;2023-09-08T02:02:25;13.50;99.90
21481;DHT22;10902;48.158;8.634;2023-09-08T02:05:10;13.50;99.90
21481;DHT22;10902;48.158;8.634;2023-09-08T02:07:56;13.40;99.90
21481;DHT22;10902;48.158;8.634;2023-09-08T02:11:16;13.40;99.90
21481;DHT22;10902;48.158;8.634;2023-09-08T02:17:25;13.40;99.90
21481;DHT22;10902;48.158;8.634;2023-09-08T02:24:30;13.40;99.90
21481;DHT22;10902;48.158;8.634;2023-09-08T02:27:16;13.30;99.90
21481;DHT22;10902;48.158;8.634;2023-09-08T02:30:02;13.40;99.90
21481;DHT22;10902;48.158;8.634;2023-09-08T02:40:30;13.40;99.90
21481;DHT22;10902;48.158;8.634;2023-09-08T02:43:16;13.20;99.90
21481;DHT22;10902;48.158;8.634;2023-09-08T02:46:01;13.20;99.90
21481;DHT22;10902;48.158;8.634;2023-09-08T02:49:02;13.20;99.90
21481;DHT22;10902;48.158;8.634;2023-09-08T02:51:54;13.10;99.90
21481;DHT22;10902;48.158;8.634;2023-09-08T02:58:22;13.00;99.90
21481;DHT22;10902;48.158;8.634;2023-09-08T03:01:12;13.00;99.90
21481;DHT22;10902;48.158;8.634;2023-09-08T03:04:02;13.00;99.90
21481;DHT22;10902;48.158;8.634;2023-09-08T03:06:47;13.00;99.90
21481;DHT22;10902;48.158;8.634;2023-09-08T03:09:34;13.00;99.90
21481;DHT22;10902;48.158;8.634;2023-09-08T03:12:25;12.90;99.90
21481;DHT22;10902;48.158;8.634;2023-09-08T03:15:10;12.90;99.90
21481;DHT22;10902;48.158;8.634;2023-09-08T03:17:57;12.90;99.90
21481;DHT22;10902;48.158;8.634;2023-09-08T03:20:47;13.00;99.90
21481;DHT22;10902;48.158;8.634;2023-09-08T03:23:33;13.00;99.90
21481;DHT22;10902;48.158;8.634;2023-09-08T03:26:18;13.20;99.90
21481;DHT22;10902;48.158;8.634;2023-09-08T03:29:04;13.40;99.90
21481;DHT22;10902;48.158;8.634;2023-09-08T03:31:49;13.40;99.90
21481;DHT22;10902;48.158;8.634;2023-09-08T03:34:35;13.40;99.90
21481;DHT22;10902;48.158;8.634;2023-09-08T03:37:25;13.60;99.90
21481;DHT22;10902;48.158;8.634;2023-09-08T03:40:11;13.80;99.90
21481;DHT22;10902;48.158;8.634;2023-09-08T03:42:57;13.90;99.90
21481;DHT22;10902;48.158;8.634;2023-09-08T03:45:42;13.70;99.90
21481;DHT22;10902;48.158;8.634;2023-09-08T03:48:28;13.60;99.90
21481;DHT22;10902;48.158;8.634;2023-09-08T03:51:14;13.40;99.90
21481;DHT22;10902;48.158;8.634;2023-09-08T03:53:59;13.40;99.90
21481;DHT22;10902;48.158;8.634;2023-09-08T03:56:45;13.50;99.90
21481;DHT22;10902;48.158;8.634;2023-09-08T03:59:31;13.50;99.90
21481;DHT22;10902;48.158;8.634;2023-09-08T04:02:17;13.50;99.90
21481;DHT22;10902;48.158;8.634;2023-09-08T04:05:03;13.40;99.90
21481;DHT22;10902;48.158;8.634;2023-09-08T04:07:48;13.30;99.90
21481;DHT22;10902;48.158;8.634;2023-09-08T04:10:34;13.30;99.90
21481;DHT22;10902;48.158;8.634;2023-09-08T04:13:20;13.30;99.90
21481;DHT22;10902;48.158;8.634;2023-09-08T04:16:05;13.40;99.90
21481;DHT22;10902;48.158;8.634;2023-09-08T04:18:51;13.30;99.90
21481;DHT22;10902;48.158;8.634;2023-09-08T04:21:36;13.30;99.90
21481;DHT22;10902;48.158;8.634;2023-09-08T04:24:22;13.10;99.90
21481;DHT22;10902;48.158;8.634;2023-09-08T04:27:08;13.00;99.90
21481;DHT22;10902;48.158;8.634;2023-09-08T04:29:55;12.80;99.90
21481;DHT22;10902;48.158;8.634;2023-09-08T04:32:41;12.70;99.90
21481;DHT22;10902;48.158;8.634;2023-09-08T04:35:26;12.50;99.90
21481;DHT22;10902;48.158;8.634;2023-09-08T04:38:12;12.50;99.90
21481;DHT22;10902;48.158;8.634;2023-09-08T04:40:57;12.70;99.90
21481;DHT22;10902;48.158;8.634;2023-09-08T04:43:43;12.70;99.90
21481;DHT22;10902;48.158;8.634;2023-09-08T04:46:28;12.70;99.90
21481;DHT22;10902;48.158;8.634;2023-09-08T04:49:14;12.60;99.90
21481;DHT22;10902;48.158;8.634;2023-09-08T04:52:00;12.70;99.90
21481;DHT22;10902;48.158;8.634;2023-09-08T04:54:45;12.70;99.90
21481;DHT22;10902;48.158;8.634;2023-09-08T04:57:31;12.80;99.90
21481;DHT22;10902;48.158;8.634;2023-09-08T05:00:17;12.90;99.90
21481;DHT22;10902;48.158;8.634;2023-09-08T05:03:03;13.10;99.90
21481;DHT22;10902;48.158;8.634;2023-09-08T05:05:49;13.10;99.90
21481;DHT22;10902;48.158;8.634;2023-09-08T05:08:34;13.00;99.90
21481;DHT22;10902;48.158;8.634;2023-09-08T05:11:20;13.00;99.90
21481;DHT22;10902;48.158;8.634;2023-09-08T05:14:05;13.00;99.90
21481;DHT22;10902;48.158;8.634;2023-09-08T05:16:51;13.20;99.90
21481;DHT22;10902;48.158;8.634;2023-09-08T05:19:40;13.30;99.90
21481;DHT22;10902;48.158;8.634;2023-09-08T05:22:26;13.30;99.90
21481;DHT22;10902;48.158;8.634;2023-09-08T05:25:12;13.50;99.90
21481;DHT22;10902;48.158;8.634;2023-09-08T05:27:57;13.50;99.90
21481;DHT22;10902;48.158;8.634;2023-09-08T05:30:43;13.40;99.90
21481;DHT22;10902;48.158;8.634;2023-09-08T05:33:28;13.40;99.90
21481;DHT22;10902;48.158;8.634;2023-09-08T05:36:14;13.50;99.90
21481;DHT22;10902;48.158;8.634;2023-09-08T05:38:59;13.60;99.90
21481;DHT22;10902;48.158;8.634;2023-09-08T05:41:45;13.70;99.90
21481;DHT22;10902;48.158;8.634;2023-09-08T05:44:31;13.70;99.90
21481;DHT22;10902;48.158;8.634;2023-09-08T05:47:17;13.70;99.90
21481;DHT22;10902;48.158;8.634;2023-09-08T05:50:02;13.80;99.90
21481;DHT22;10902;48.158;8.634;2023-09-08T05:52:48;13.80;99.90
21481;DHT22;10902;48.158;8.634;2023-09-08T05:55:33;13.80;99.90
21481;DHT22;10902;48.158;8.634;2023-09-08T05:58:19;13.80;99.90
21481;DHT22;10902;48.158;8.634;2023-09-08T06:01:05;13.80;99.90
21481;DHT22;10902;48.158;8.634;2023-09-08T06:03:52;13.80;99.90
21481;DHT22;10902;48.158;8.634;2023-09-08T06:06:39;13.90;99.90
21481;DHT22;10902;48.158;8.634;2023-09-08T06:09:25;13.90;99.90
21481;DHT22;10902;48.158;8.634;2023-09-08T06:12:10;14.00;99.90
21481;DHT22;10902;48.158;8.634;2023-09-08T06:14:56;14.20;99.90
21481;DHT22;10902;48.158;8.634;2023-09-08T06:17:41;14.20;99.90
21481;DHT22;10902;48.158;8.634;2023-09-08T06:20:27;14.30;99.90
21481;DHT22;10902;48.158;8.634;2023-09-08T06:23:13;14.30;99.90
21481;DHT22;10902;48.158;8.634;2023-09-08T06:25:59;14.40;99.90
21481;DHT22;10902;48.158;8.634;2023-09-08T06:28:45;14.60;99.90
21481;DHT22;10902;48.158;8.634;2023-09-08T06:31:31;14.70;99.90
21481;DHT22;10902;48.158;8.634;2023-09-08T06:34:16;14.80;99.90
21481;DHT22;10902;48.158;8.634;2023-09-08T06:37:02;14.90;99.90
21481;DHT22;10902;48.158;8.634;2023-09-08T06:39:47;15.00;99.90
21481;DHT22;10902;48.158;8.634;2023-09-08T06:42:33;15.10;99.90
21481;DHT22;10902;48.158;8.634;2023-09-08T06:45:19;15.20;99.90
21481;DHT22;10902;48.158;8.634;2023-09-08T06:48:05;15.30;99.90
21481;DHT22;10902;48.158;8.634;2023-09-08T06:50:53;15.40;99.90
21481;DHT22;10902;48.158;8.634;2023-09-08T06:53:39;15.70;99.90
21481;DHT22;10902;48.158;8.634;2023-09-08T06:56:25;15.80;99.90
21481;DHT22;10902;48.158;8.634;2023-09-08T06:59:10;15.90;99.90
21481;DHT22;10902;48.158;8.634;2023-09-08T07:01:56;16.20;99.90
21481;DHT22;10902;48.158;8.634;2023-09-08T07:04:42;16.40;99.90
21481;DHT22;10902;48.158;8.634;2023-09-08T07:07:27;16.50;99.90
21481;DHT22;10902;48.158;8.634;2023-09-08T07:10:13;16.70;99.90
21481;DHT22;10902;48.158;8.634;2023-09-08T07:12:58;16.80;99.90
21481;DHT22;10902;48.158;8.634;2023-09-08T07:15:44;16.90;99.90
21481;DHT22;10902;48.158;8.634;2023-09-08T07:18:30;16.90;99.90
21481;DHT22;10902;48.158;8.634;2023-09-08T07:21:20;17.10;99.90
21481;DHT22;10902;48.158;8.634;2023-09-08T07:24:06;17.20;99.90
21481;DHT22;10902;48.158;8.634;2023-09-08T07:26:51;17.20;99.90
21481;DHT22;10902;48.158;8.634;2023-09-08T07:29:37;17.50;99.90
21481;DHT22;10902;48.158;8.634;2023-09-08T07:32:22;17.70;99.90
21481;DHT22;10902;48.158;8.634;2023-09-08T07:35:10;17.90;99.90
21481;DHT22;10902;48.158;8.634;2023-09-08T07:37:59;18.00;99.90
21481;DHT22;10902;48.158;8.634;2023-09-08T07:40:45;18.30;99.90
21481;DHT22;10902;48.158;8.634;2023-09-08T07:43:30;18.70;99.90
21481;DHT22;10902;48.158;8.634;2023-09-08T07:46:16;18.90;99.90
21481;DHT22;10902;48.158;8.634;2023-09-08T07:49:01;19.20;99.90
21481;DHT22;10902;48.158;8.634;2023-09-08T07:51:47;19.30;99.90
21481;DHT22;10902;48.158;8.634;2023-09-08T07:54:33;19.60;99.90
21481;DHT22;10902;48.158;8.634;2023-09-08T07:57:53;19.80;99.90
21481;DHT22;10902;48.158;8.634;2023-09-08T08:00:39;19.90;99.90
21481;DHT22;10902;48.158;8.634;2023-09-08T08:03:24;20.00;99.90
21481;DHT22;10902;48.158;8.634;2023-09-08T08:06:10;20.20;99.90
21481;DHT22;10902;48.158;8.634;2023-09-08T08:08:55;20.20;99.90
21481;DHT22;10902;48.158;8.634;2023-09-08T08:11:41;20.40;99.90
21481;DHT22;10902;48.158;8.634;2023-09-08T08:14:27;20.70;99.90
21481;DHT22;10902;48.158;8.634;2023-09-08T08:17:13;21.00;99.90
21481;DHT22;10902;48.158;8.634;2023-09-08T08:19:58;21.30;99.90
21481;DHT22;10902;48.158;8.634;2023-09-08T08:22:44;21.50;99.90
21481;DHT22;10902;48.158;8.634;2023-09-08T08:25:31;21.80;99.90
21481;DHT22;10902;48.158;8.634;2023-09-08T08:28:16;21.90;99.90
21481;DHT22;10902;48.158;8.634;2023-09-08T08:31:02;22.20;99.90
21481;DHT22;10902;48.158;8.634;2023-09-08T08:33:48;22.40;99.90
21481;DHT22;10902;48.158;8.634;2023-09-08T08:36:34;22.90;99.90
21481;DHT22;10902;48.158;8.634;2023-09-08T08:39:19;23.10;99.90
21481;DHT22;10902;48.158;8.634;2023-09-08T08:42:09;23.40;99.90
21481;DHT22;10902;48.158;8.634;2023-09-08T08:44:54;23.70;99.90
21481;DHT22;10902;48.158;8.634;2023-09-08T08:47:41;23.90;99.90
21481;DHT22;10902;48.158;8.634;2023-09-08T08:50:28;24.30;99.90
21481;DHT22;10902;48.158;8.634;2023-09-08T08:53:16;24.60;99.90
21481;DHT22;10902;48.158;8.634;2023-09-08T08:56:03;24.80;99.90
21481;DHT22;10902;48.158;8.634;2023-09-08T08:58:49;24.90;99.90
21481;DHT22;10902;48.158;8.634;2023-09-08T09:01:36;25.10;99.90
21481;DHT22;10902;48.158;8.634;2023-09-08T09:04:22;25.80;99.90
21481;DHT22;10902;48.158;8.634;2023-09-08T09:07:08;25.80;99.90
21481;DHT22;10902;48.158;8.634;2023-09-08T09:09:54;26.10;99.90
21481;DHT22;10902;48.158;8.634;2023-09-08T09:12:40;26.20;99.90
21481;DHT22;10902;48.158;8.634;2023-09-08T09:15:30;26.50;99.90
21481;DHT22;10902;48.158;8.634;2023-09-08T09:18:16;26.10;99.90
21481;DHT22;10902;48.158;8.634;2023-09-08T09:21:02;26.70;99.90
21481;DHT22;10902;48.158;8.634;2023-09-08T09:23:48;26.50;99.90
21481;DHT22;10902;48.158;8.634;2023-09-08T09:26:33;27.30;99.90
21481;DHT22;10902;48.158;8.634;2023-09-08T09:29:20;28.10;99.90
21481;DHT22;10902;48.158;8.634;2023-09-08T09:32:07;28.30;99.90
21481;DHT22;10902;48.158;8.634;2023-09-08T09:34:57;28.00;99.90
21481;DHT22;10902;48.158;8.634;2023-09-08T09:37:47;28.10;99.90
21481;DHT22;10902;48.158;8.634;2023-09-08T09:40:33;28.70;99.90
21481;DHT22;10902;48.158;8.634;2023-09-08T09:43:21;29.20;99.90
21481;DHT22;10902;48.158;8.634;2023-09-08T09:46:08;29.20;99.90
21481;DHT22;10902;48.158;8.634;2023-09-08T09:48:54;28.70;99.90
21481;DHT22;10902;48.158;8.634;2023-09-08T09:51:49;28.00;99.90
21481;DHT22;10902;48.158;8.634;2023-09-08T09:54:36;27.80;99.90
21481;DHT22;10902;48.158;8.634;2023-09-08T09:57:22;27.90;99.90
21481;DHT22;10902;48.158;8.634;2023-09-08T10:00:08;27.90;99.90
21481;DHT22;10902;48.158;8.634;2023-09-08T10:02:55;27.90;99.90
21481;DHT22;10902;48.158;8.634;2023-09-08T10:05:41;28.60;99.90
21481;DHT22;10902;48.158;8.634;2023-09-08T10:08:27;28.60;99.90
21481;DHT22;10902;48.158;8.634;2023-09-08T10:11:16;28.80;99.90
21481;DHT22;10902;48.158;8.634;2023-09-08T10:14:07;28.80;99.90
21481;DHT22;10902;48.158;8.634;2023-09-08T10:16:59;29.40;99.90
21481;DHT22;10902;48.158;8.634;2023-09-08T10:23:33;31.50;99.90
21481;DHT22;10902;48.158;8.634;2023-09-08T10:30:06;33.70;99.90
21481;DHT22;10902;48.158;8.634;2023-09-08T10:32:52;34.10;99.90
21481;DHT22;10902;48.158;8.634;2023-09-08T10:35:39;34.00;99.90
21481;DHT22;10902;48.158;8.634;2023-09-08T10:38:31;33.30;99.90
21481;DHT22;10902;48.158;8.634;2023-09-08T10:44:07;32.80;99.90
21481;DHT22;10902;48.158;8.634;2023-09-08T10:46:54;31.70;99.90
21481;DHT22;10902;48.158;8.634;2023-09-08T10:49:40;30.40;99.90
21481;DHT22;10902;48.158;8.634;2023-09-08T10:52:26;31.10;99.90
21481;DHT22;10902;48.158;8.634;2023-09-08T10:55:12;31.30;99.90
21481;DHT22;10902;48.158;8.634;2023-09-08T10:57:58;30.70;99.90
21481;DHT22;10902;48.158;8.634;2023-09-08T11:04:30;31.20;99.90
21481;DHT22;10902;48.158;8.634;2023-09-08T11:07:24;33.10;99.90
21481;DHT22;10902;48.158;8.634;2023-09-08T11:10:12;32.40;99.90
21481;DHT22;10902;48.158;8.634;2023-09-08T11:12:57;33.10;99.90
21481;DHT22;10902;48.158;8.634;2023-09-08T11:15:52;33.90;99.90
21481;DHT22;10902;48.158;8.634;2023-09-08T11:18:38;34.80;99.90
21481;DHT22;10902;48.158;8.634;2023-09-08T11:21:24;34.90;99.90
21481;DHT22;10902;48.158;8.634;2023-09-08T11:24:10;34.80;99.90
21481;DHT22;10902;48.158;8.634;2023-09-08T11:26:59;35.10;99.90
21481;DHT22;10902;48.158;8.634;2023-09-08T11:29:46;35.90;99.90
21481;DHT22;10902;48.158;8.634;2023-09-08T11:32:34;36.00;99.90
21481;DHT22;10902;48.158;8.634;2023-09-08T11:35:20;34.80;99.90
21481;DHT22;10902;48.158;8.634;2023-09-08T11:38:10;35.00;99.90
21481;DHT22;10902;48.158;8.634;2023-09-08T11:40:57;34.00;99.90
21481;DHT22;10902;48.158;8.634;2023-09-08T11:43:43;34.30;99.90
21481;DHT22;10902;48.158;8.634;2023-09-08T11:46:30;34.80;99.90
21481;DHT22;10902;48.158;8.634;2023-09-08T11:49:19;35.50;99.90
21481;DHT22;10902;48.158;8.634;2023-09-08T11:52:08;36.20;99.90
21481;DHT22;10902;48.158;8.634;2023-09-08T11:54:56;36.40;99.90
21481;DHT22;10902;48.158;8.634;2023-09-08T11:57:46;36.40;99.90
21481;DHT22;10902;48.158;8.634;2023-09-08T12:00:32;36.60;99.90
21481;DHT22;10902;48.158;8.634;2023-09-08T12:03:19;36.90;99.90
21481;DHT22;10902;48.158;8.634;2023-09-08T12:06:04;37.10;99.90
21481;DHT22;10902;48.158;8.634;2023-09-08T12:08:50;37.30;99.90
21481;DHT22;10902;48.158;8.634;2023-09-08T12:11:35;37.50;99.90
21481;DHT22;10902;48.158;8.634;2023-09-08T12:14:26;36.70;99.90
21481;DHT22;10902;48.158;8.634;2023-09-08T12:17:14;35.00;99.90
21481;DHT22;10902;48.158;8.634;2023-09-08T12:20:16;35.40;99.90
21481;DHT22;10902;48.158;8.634;2023-09-08T12:23:14;35.10;99.90
21481;DHT22;10902;48.158;8.634;2023-09-08T12:26:03;35.40;99.90
21481;DHT22;10902;48.158;8.634;2023-09-08T12:28:49;35.90;99.90
21481;DHT22;10902;48.158;8.634;2023-09-08T12:31:35;36.00;99.90
21481;DHT22;10902;48.158;8.634;2023-09-08T12:34:21;37.60;99.90
21481;DHT22;10902;48.158;8.634;2023-09-08T12:37:13;37.60;99.90
21481;DHT22;10902;48.158;8.634;2023-09-08T12:39:58;38.60;99.90
21481;DHT22;10902;48.158;8.634;2023-09-08T12:42:46;39.70;99.90
21481;DHT22;10902;48.158;8.634;2023-09-08T12:45:32;39.80;99.90
21481;DHT22;10902;48.158;8.634;2023-09-08T12:48:17;37.70;99.90
21481;DHT22;10902;48.158;8.634;2023-09-08T12:51:03;35.40;99.90
21481;DHT22;10902;48.158;8.634;2023-09-08T12:53:49;33.90;99.90
21481;DHT22;10902;48.158;8.634;2023-09-08T12:56:35;34.10;99.90
21481;DHT22;10902;48.158;8.634;2023-09-08T12:59:20;34.70;99.90
21481;DHT22;10902;48.158;8.634;2023-09-08T13:02:06;35.80;99.90
21481;DHT22;10902;48.158;8.634;2023-09-08T13:04:52;36.90;99.90
21481;DHT22;10902;48.158;8.634;2023-09-08T13:07:40;38.60;99.90
21481;DHT22;10902;48.158;8.634;2023-09-08T13:10:25;39.00;99.90
21481;DHT22;10902;48.158;8.634;2023-09-08T13:13:11;39.10;99.90
21481;DHT22;10902;48.158;8.634;2023-09-08T13:15:56;38.80;99.90
21481;DHT22;10902;48.158;8.634;2023-09-08T13:18:42;39.10;99.90
21481;DHT22;10902;48.158;8.634;2023-09-08T13:21:30;39.10;99.90
21481;DHT22;10902;48.158;8.634;2023-09-08T13:24:16;39.40;99.90
21481;DHT22;10902;48.158;8.634;2023-09-08T13:27:01;39.80;99.90
21481;DHT22;10902;48.158;8.634;2023-09-08T13:29:47;39.90;99.90
21481;DHT22;10902;48.158;8.634;2023-09-08T13:32:33;39.80;99.90
21481;DHT22;10902;48.158;8.634;2023-09-08T13:35:19;40.10;99.90
21481;DHT22;10902;48.158;8.634;2023-09-08T13:38:05;41.00;99.90
21481;DHT22;10902;48.158;8.634;2023-09-08T13:40:51;40.80;99.90
21481;DHT22;10902;48.158;8.634;2023-09-08T13:43:38;40.40;99.90
21481;DHT22;10902;48.158;8.634;2023-09-08T13:46:23;40.10;99.90
21481;DHT22;10902;48.158;8.634;2023-09-08T13:49:09;40.00;99.90
21481;DHT22;10902;48.158;8.634;2023-09-08T13:51:54;40.10;99.90
21481;DHT22;10902;48.158;8.634;2023-09-08T13:54:40;39.80;99.90
21481;DHT22;10902;48.158;8.634;2023-09-08T13:57:26;41.30;99.90
21481;DHT22;10902;48.158;8.634;2023-09-08T14:00:12;40.40;99.90
21481;DHT22;10902;48.158;8.634;2023-09-08T14:02:58;41.30;99.90
21481;DHT22;10902;48.158;8.634;2023-09-08T14:05:44;40.70;99.90
21481;DHT22;10902;48.158;8.634;2023-09-08T14:08:29;39.40;99.90
21481;DHT22;10902;48.158;8.634;2023-09-08T14:11:15;38.40;99.90
21481;DHT22;10902;48.158;8.634;2023-09-08T14:14:00;37.30;99.90
21481;DHT22;10902;48.158;8.634;2023-09-08T14:16:46;37.30;99.90
21481;DHT22;10902;48.158;8.634;2023-09-08T14:19:32;37.60;99.90
21481;DHT22;10902;48.158;8.634;2023-09-08T14:22:17;38.20;99.90
21481;DHT22;10902;48.158;8.634;2023-09-08T14:25:03;39.00;99.90
21481;DHT22;10902;48.158;8.634;2023-09-08T14:27:49;39.40;99.90
21481;DHT22;10902;48.158;8.634;2023-09-08T14:30:35;39.50;99.90
21481;DHT22;10902;48.158;8.634;2023-09-08T14:33:21;40.00;99.90
21481;DHT22;10902;48.158;8.634;2023-09-08T14:36:09;40.60;99.90
21481;DHT22;10902;48.158;8.634;2023-09-08T14:38:54;40.20;99.90
21481;DHT22;10902;48.158;8.634;2023-09-08T14:41:41;39.50;99.90
21481;DHT22;10902;48.158;8.634;2023-09-08T14:44:27;39.10;99.90
21481;DHT22;10902;48.158;8.634;2023-09-08T14:47:13;38.60;99.90
21481;DHT22;10902;48.158;8.634;2023-09-08T14:50:03;39.50;99.90
21481;DHT22;10902;48.158;8.634;2023-09-08T14:52:48;39.80;99.90
21481;DHT22;10902;48.158;8.634;2023-09-08T14:55:34;40.80;99.90
21481;DHT22;10902;48.158;8.634;2023-09-08T14:58:20;40.60;99.90
21481;DHT22;10902;48.158;8.634;2023-09-08T15:01:06;40.60;99.90
21481;DHT22;10902;48.158;8.634;2023-09-08T15:03:53;40.40;99.80
21481;DHT22;10902;48.158;8.634;2023-09-08T15:06:40;40.20;99.50
21481;DHT22;10902;48.158;8.634;2023-09-08T15:09:25;40.10;99.50
21481;DHT22;10902;48.158;8.634;2023-09-08T15:12:13;39.20;99.90
21481;DHT22;10902;48.158;8.634;2023-09-08T15:14:59;38.80;99.90
21481;DHT22;10902;48.158;8.634;2023-09-08T15:17:44;38.80;99.70
21481;DHT22;10902;48.158;8.634;2023-09-08T15:20:31;39.00;99.50
21481;DHT22;10902;48.158;8.634;2023-09-08T15:23:18;39.60;99.50
21481;DHT22;10902;48.158;8.634;2023-09-08T15:26:04;40.20;98.80
21481;DHT22;10902;48.158;8.634;2023-09-08T15:28:50;40.70;98.20
21481;DHT22;10902;48.158;8.634;2023-09-08T15:31:35;40.10;98.70
21481;DHT22;10902;48.158;8.634;2023-09-08T15:34:21;39.00;98.30
21481;DHT22;10902;48.158;8.634;2023-09-08T15:37:07;38.90;98.60
21481;DHT22;10902;48.158;8.634;2023-09-08T15:39:52;38.80;98.70
21481;DHT22;10902;48.158;8.634;2023-09-08T15:42:38;39.40;98.70
21481;DHT22;10902;48.158;8.634;2023-09-08T15:45:23;39.90;98.50
21481;DHT22;10902;48.158;8.634;2023-09-08T15:48:09;40.00;98.00
21481;DHT22;10902;48.158;8.634;2023-09-08T15:50:54;39.90;98.10
21481;DHT22;10902;48.158;8.634;2023-09-08T15:53:42;40.40;97.30
21481;DHT22;10902;48.158;8.634;2023-09-08T15:56:29;40.10;97.20
21481;DHT22;10902;48.158;8.634;2023-09-08T15:59:15;39.70;97.00
21481;DHT22;10902;48.158;8.634;2023-09-08T16:02:00;39.70;97.10
21481;DHT22;10902;48.158;8.634;2023-09-08T16:04:52;39.50;96.90
21481;DHT22;10902;48.158;8.634;2023-09-08T16:07:41;39.70;96.40
21481;DHT22;10902;48.158;8.634;2023-09-08T16:10:28;39.50;96.40
21481;DHT22;10902;48.158;8.634;2023-09-08T16:13:13;38.90;96.50
21481;DHT22;10902;48.158;8.634;2023-09-08T16:15:59;38.60;96.70
21481;DHT22;10902;48.158;8.634;2023-09-08T16:18:44;39.40;97.00
21481;DHT22;10902;48.158;8.634;2023-09-08T16:21:30;39.10;97.20
21481;DHT22;10902;48.158;8.634;2023-09-08T16:24:15;38.60;97.50
21481;DHT22;10902;48.158;8.634;2023-09-08T16:27:01;38.80;97.60
21481;DHT22;10902;48.158;8.634;2023-09-08T16:29:48;39.10;97.60
21481;DHT22;10902;48.158;8.634;2023-09-08T16:32:34;39.00;97.50
21481;DHT22;10902;48.158;8.634;2023-09-08T16:35:19;38.90;97.70
21481;DHT22;10902;48.158;8.634;2023-09-08T16:38:05;38.80;97.60
21481;DHT22;10902;48.158;8.634;2023-09-08T16:40:52;39.00;97.70
21481;DHT22;10902;48.158;8.634;2023-09-08T16:43:37;38.80;97.70
21481;DHT22;10902;48.158;8.634;2023-09-08T16:46:23;37.90;98.10
21481;DHT22;10902;48.158;8.634;2023-09-08T16:49:09;37.20;99.00
21481;DHT22;10902;48.158;8.634;2023-09-08T16:51:54;36.70;99.60
21481;DHT22;10902;48.158;8.634;2023-09-08T16:54:41;36.30;99.90
21481;DHT22;10902;48.158;8.634;2023-09-08T16:57:27;35.90;99.90
21481;DHT22;10902;48.158;8.634;2023-09-08T17:00:12;35.60;99.90
21481;DHT22;10902;48.158;8.634;2023-09-08T17:02:58;35.00;99.90
21481;DHT22;10902;48.158;8.634;2023-09-08T17:05:44;34.70;99.90
21481;DHT22;10902;48.158;8.634;2023-09-08T17:08:29;33.80;99.90
21481;DHT22;10902;48.158;8.634;2023-09-08T17:11:15;32.90;99.90
21481;DHT22;10902;48.158;8.634;2023-09-08T17:14:01;32.60;99.90
21481;DHT22;10902;48.158;8.634;2023-09-08T17:16:46;32.40;99.90
21481;DHT22;10902;48.158;8.634;2023-09-08T17:19:32;32.40;99.90
21481;DHT22;10902;48.158;8.634;2023-09-08T17:22:17;32.10;99.90
21481;DHT22;10902;48.158;8.634;2023-09-08T17:25:03;31.60;99.90
21481;DHT22;10902;48.158;8.634;2023-09-08T17:27:49;31.00;99.90
21481;DHT22;10902;48.158;8.634;2023-09-08T17:30:35;30.60;99.90
21481;DHT22;10902;48.158;8.634;2023-09-08T17:33:20;30.30;99.90
21481;DHT22;10902;48.158;8.634;2023-09-08T17:36:06;30.10;99.90
21481;DHT22;10902;48.158;8.634;2023-09-08T17:38:51;29.80;99.90
21481;DHT22;10902;48.158;8.634;2023-09-08T17:41:37;29.40;99.90
21481;DHT22;10902;48.158;8.634;2023-09-08T17:44:23;29.00;99.90
21481;DHT22;10902;48.158;8.634;2023-09-08T17:47:09;28.30;99.90
21481;DHT22;10902;48.158;8.634;2023-09-08T17:49:54;27.80;99.90
21481;DHT22;10902;48.158;8.634;2023-09-08T17:52:43;27.40;99.90
21481;DHT22;10902;48.158;8.634;2023-09-08T17:55:29;27.10;99.90
21481;DHT22;10902;48.158;8.634;2023-09-08T17:58:15;26.90;99.90
21481;DHT22;10902;48.158;8.634;2023-09-08T18:01:00;26.60;99.90
21481;DHT22;10902;48.158;8.634;2023-09-08T18:03:46;26.30;99.90
21481;DHT22;10902;48.158;8.634;2023-09-08T18:06:34;26.20;99.90
21481;DHT22;10902;48.158;8.634;2023-09-08T18:09:20;26.10;99.90
21481;DHT22;10902;48.158;8.634;2023-09-08T18:12:06;26.00;99.90
21481;DHT22;10902;48.158;8.634;2023-09-08T18:14:52;25.80;99.90
21481;DHT22;10902;48.158;8.634;2023-09-08T18:17:38;25.60;99.90
21481;DHT22;10902;48.158;8.634;2023-09-08T18:20:25;25.40;99.90